sensor_id;sensor_type;location;lat;lon;timestamp;P1;durP1;ratioP1;P2;durP2;ratioP2
40012;SDS011;37387;42.672;23.334;2023-04-07T00:00:02;5.0;;;2.3;;
40012;SDS011;37387;42.672;23.334;2023-04-07T00:01:02;4.3;;;2.1;;
40012;SDS011;37387;42.672;23.334;2023-04-07T00:02:02;5.2;;;2.9;;
40012;SDS011;37387;42.672;23.334;2023-04-07T00:03:02;5.2;;;1.7;;
40012;SDS011;37387;42.672;23.334;2023-04-07T00:04:02;4.1;;;2.4;;
40012;SDS011;37387;42.672;23.334;2023-04-07T00:05:01;4.1;;;2.5;;
40012;SDS011;37387;42.672;23.334;2023-04-07T00:06:02;6.2;;;1.3;;
40012;SDS011;37387;42.672;23.334;2023-04-07T00:07:01;3.6;;;1.9;;
40012;SDS011;37387;42.672;23.334;2023-04-07T00:08:01;3.6;;;1.7;;
40012;SDS011;37387;42.672;23.334;2023-04-07T00:10:01;3.4;;;1.9;;
40012;SDS011;37387;42.672;23.334;2023-04-07T00:12:01;3.1;;;2.0;;
40012;SDS011;37387;42.672;23.334;2023-04-07T00:13:01;3.0;;;2.2;;
40012;SDS011;37387;42.672;23.334;2023-04-07T00:15:00;3.0;;;1.9;;
40012;SDS011;37387;42.672;23.334;2023-04-07T00:17:00;3.1;;;2.0;;
40012;SDS011;37387;42.672;23.334;2023-04-07T00:18:00;3.1;;;1.8;;
40012;SDS011;37387;42.672;23.334;2023-04-07T00:19:00;2.1;;;1.4;;
40012;SDS011;37387;42.672;23.334;2023-04-07T00:20:00;2.1;;;2.1;;
40012;SDS011;37387;42.672;23.334;2023-04-07T00:21:00;4.0;;;1.5;;
40012;SDS011;37387;42.672;23.334;2023-04-07T00:22:00;4.4;;;1.9;;
40012;SDS011;37387;42.672;23.334;2023-04-07T00:23:00;4.4;;;1.7;;
40012;SDS011;37387;42.672;23.334;2023-04-07T00:24:59;2.2;;;1.9;;
40012;SDS011;37387;42.672;23.334;2023-04-07T00:25:59;2.8;;;1.7;;
40012;SDS011;37387;42.672;23.334;2023-04-07T00:26:59;2.7;;;1.8;;
40012;SDS011;37387;42.672;23.334;2023-04-07T00:27:59;2.7;;;2.2;;
40012;SDS011;37387;42.672;23.334;2023-04-07T00:28:59;3.3;;;1.3;;
40012;SDS011;37387;42.672;23.334;2023-04-07T00:30:59;2.5;;;1.6;;
40012;SDS011;37387;42.672;23.334;2023-04-07T00:31:59;3.3;;;1.8;;
40012;SDS011;37387;42.672;23.334;2023-04-07T00:32:59;5.7;;;1.9;;
40012;SDS011;37387;42.672;23.334;2023-04-07T00:33:59;2.9;;;1.7;;
40012;SDS011;37387;42.672;23.334;2023-04-07T00:34:58;2.8;;;1.6;;
40012;SDS011;37387;42.672;23.334;2023-04-07T00:35:58;3.6;;;1.9;;
40012;SDS011;37387;42.672;23.334;2023-04-07T00:36:58;3.6;;;1.6;;
40012;SDS011;37387;42.672;23.334;2023-04-07T00:37:58;3.3;;;2.1;;
40012;SDS011;37387;42.672;23.334;2023-04-07T00:38:58;3.3;;;1.9;;
40012;SDS011;37387;42.672;23.334;2023-04-07T00:39:58;4.2;;;1.7;;
40012;SDS011;37387;42.672;23.334;2023-04-07T00:40:58;4.3;;;1.6;;
40012;SDS011;37387;42.672;23.334;2023-04-07T00:41:58;2.9;;;1.9;;
40012;SDS011;37387;42.672;23.334;2023-04-07T00:42:58;2.8;;;1.7;;
40012;SDS011;37387;42.672;23.334;2023-04-07T00:44:57;4.7;;;1.8;;
40012;SDS011;37387;42.672;23.334;2023-04-07T00:45:57;2.6;;;2.0;;
40012;SDS011;37387;42.672;23.334;2023-04-07T00:46:57;4.1;;;1.4;;
40012;SDS011;37387;42.672;23.334;2023-04-07T00:47:57;2.4;;;1.9;;
40012;SDS011;37387;42.672;23.334;2023-04-07T00:48:57;3.6;;;2.0;;
40012;SDS011;37387;42.672;23.334;2023-04-07T00:49:57;3.6;;;1.7;;
40012;SDS011;37387;42.672;23.334;2023-04-07T00:50:57;3.4;;;1.9;;
40012;SDS011;37387;42.672;23.334;2023-04-07T00:51:57;3.7;;;2.2;;
40012;SDS011;37387;42.672;23.334;2023-04-07T00:53:57;4.4;;;1.9;;
40012;SDS011;37387;42.672;23.334;2023-04-07T00:54:57;4.4;;;1.6;;
40012;SDS011;37387;42.672;23.334;2023-04-07T00:55:56;4.6;;;2.4;;
40012;SDS011;37387;42.672;23.334;2023-04-07T00:57:56;5.3;;;2.2;;
40012;SDS011;37387;42.672;23.334;2023-04-07T00:58:56;4.3;;;1.9;;
40012;SDS011;37387;42.672;23.334;2023-04-07T00:59:56;2.5;;;1.6;;
40012;SDS011;37387;42.672;23.334;2023-04-07T01:00:58;5.0;;;2.0;;
40012;SDS011;37387;42.672;23.334;2023-04-07T01:02:56;3.9;;;1.7;;
40012;SDS011;37387;42.672;23.334;2023-04-07T01:03:56;3.8;;;2.3;;
40012;SDS011;37387;42.672;23.334;2023-04-07T01:04:58;1.8;;;1.6;;
40012;SDS011;37387;42.672;23.334;2023-04-07T01:05:57;1.8;;;1.8;;
40012;SDS011;37387;42.672;23.334;2023-04-07T01:06:56;2.7;;;1.9;;
40012;SDS011;37387;42.672;23.334;2023-04-07T01:07:57;2.9;;;2.5;;
40012;SDS011;37387;42.672;23.334;2023-04-07T01:08:56;3.5;;;2.0;;
40012;SDS011;37387;42.672;23.334;2023-04-07T01:09:57;3.3;;;2.1;;
40012;SDS011;37387;42.672;23.334;2023-04-07T01:10:55;2.2;;;1.2;;
40012;SDS011;37387;42.672;23.334;2023-04-07T01:11:56;3.8;;;1.9;;
40012;SDS011;37387;42.672;23.334;2023-04-07T01:12:56;2.5;;;1.7;;
40012;SDS011;37387;42.672;23.334;2023-04-07T01:13:54;2.5;;;2.3;;
40012;SDS011;37387;42.672;23.334;2023-04-07T01:14:56;4.2;;;1.7;;
40012;SDS011;37387;42.672;23.334;2023-04-07T01:15:54;2.7;;;1.9;;
40012;SDS011;37387;42.672;23.334;2023-04-07T01:16:54;2.7;;;1.1;;
40012;SDS011;37387;42.672;23.334;2023-04-07T01:17:54;4.6;;;1.6;;
40012;SDS011;37387;42.672;23.334;2023-04-07T01:18:54;4.6;;;2.2;;
40012;SDS011;37387;42.672;23.334;2023-04-07T01:19:55;2.8;;;2.3;;
40012;SDS011;37387;42.672;23.334;2023-04-07T01:20:55;4.3;;;1.9;;
40012;SDS011;37387;42.672;23.334;2023-04-07T01:21:54;2.5;;;1.6;;
40012;SDS011;37387;42.672;23.334;2023-04-07T01:22:54;2.5;;;1.1;;
40012;SDS011;37387;42.672;23.334;2023-04-07T01:24:04;2.4;;;1.9;;
40012;SDS011;37387;42.672;23.334;2023-04-07T01:25:59;2.3;;;1.8;;
40012;SDS011;37387;42.672;23.334;2023-04-07T01:26:53;2.6;;;1.5;;
40012;SDS011;37387;42.672;23.334;2023-04-07T01:27:57;1.4;;;1.2;;
40012;SDS011;37387;42.672;23.334;2023-04-07T01:29:53;3.0;;;2.2;;
40012;SDS011;37387;42.672;23.334;2023-04-07T01:30:53;3.8;;;1.9;;
40012;SDS011;37387;42.672;23.334;2023-04-07T01:31:53;2.9;;;1.6;;
40012;SDS011;37387;42.672;23.334;2023-04-07T01:33:52;2.6;;;1.8;;
40012;SDS011;37387;42.672;23.334;2023-04-07T01:34:52;3.1;;;1.5;;
40012;SDS011;37387;42.672;23.334;2023-04-07T01:35:52;2.1;;;1.3;;
40012;SDS011;37387;42.672;23.334;2023-04-07T01:36:52;3.0;;;1.5;;
40012;SDS011;37387;42.672;23.334;2023-04-07T01:37:52;2.9;;;1.9;;
40012;SDS011;37387;42.672;23.334;2023-04-07T01:38:52;2.8;;;1.4;;
40012;SDS011;37387;42.672;23.334;2023-04-07T01:39:52;4.2;;;2.1;;
40012;SDS011;37387;42.672;23.334;2023-04-07T01:40:52;2.8;;;1.7;;
40012;SDS011;37387;42.672;23.334;2023-04-07T01:41:51;2.8;;;1.8;;
40012;SDS011;37387;42.672;23.334;2023-04-07T01:42:51;2.8;;;2.1;;
40012;SDS011;37387;42.672;23.334;2023-04-07T01:43:51;3.4;;;1.7;;
40012;SDS011;37387;42.672;23.334;2023-04-07T01:44:51;2.8;;;2.1;;
40012;SDS011;37387;42.672;23.334;2023-04-07T01:45:51;2.6;;;1.8;;
40012;SDS011;37387;42.672;23.334;2023-04-07T01:46:51;2.6;;;1.2;;
40012;SDS011;37387;42.672;23.334;2023-04-07T01:47:51;2.0;;;1.8;;
40012;SDS011;37387;42.672;23.334;2023-04-07T01:48:51;3.6;;;2.0;;
40012;SDS011;37387;42.672;23.334;2023-04-07T01:49:51;4.1;;;1.5;;
40012;SDS011;37387;42.672;23.334;2023-04-07T01:50:51;4.1;;;2.5;;
40012;SDS011;37387;42.672;23.334;2023-04-07T01:51:50;3.8;;;2.1;;
40012;SDS011;37387;42.672;23.334;2023-04-07T01:52:50;4.1;;;2.4;;
40012;SDS011;37387;42.672;23.334;2023-04-07T01:53:50;4.1;;;2.6;;
40012;SDS011;37387;42.672;23.334;2023-04-07T01:55:50;5.5;;;2.4;;
40012;SDS011;37387;42.672;23.334;2023-04-07T01:56:50;4.2;;;2.2;;
40012;SDS011;37387;42.672;23.334;2023-04-07T01:57:52;4.0;;;2.9;;
40012;SDS011;37387;42.672;23.334;2023-04-07T01:58:50;4.0;;;3.3;;
40012;SDS011;37387;42.672;23.334;2023-04-07T01:59:50;6.2;;;3.0;;
40012;SDS011;37387;42.672;23.334;2023-04-07T02:00:49;6.2;;;2.4;;
40012;SDS011;37387;42.672;23.334;2023-04-07T02:01:49;6.6;;;3.3;;
40012;SDS011;37387;42.672;23.334;2023-04-07T02:02:51;7.2;;;3.2;;
40012;SDS011;37387;42.672;23.334;2023-04-07T02:03:51;7.2;;;3.4;;
40012;SDS011;37387;42.672;23.334;2023-04-07T02:04:51;5.3;;;3.0;;
40012;SDS011;37387;42.672;23.334;2023-04-07T02:05:51;5.3;;;2.8;;
40012;SDS011;37387;42.672;23.334;2023-04-07T02:07:51;4.8;;;3.2;;
40012;SDS011;37387;42.672;23.334;2023-04-07T02:08:50;3.7;;;2.7;;
40012;SDS011;37387;42.672;23.334;2023-04-07T02:09:48;3.7;;;3.0;;
40012;SDS011;37387;42.672;23.334;2023-04-07T02:10:48;4.8;;;3.6;;
40012;SDS011;37387;42.672;23.334;2023-04-07T02:11:48;7.3;;;3.4;;
40012;SDS011;37387;42.672;23.334;2023-04-07T02:12:48;7.3;;;3.2;;
40012;SDS011;37387;42.672;23.334;2023-04-07T02:13:48;5.1;;;2.4;;
40012;SDS011;37387;42.672;23.334;2023-04-07T02:14:48;3.8;;;3.1;;
40012;SDS011;37387;42.672;23.334;2023-04-07T02:15:48;6.2;;;3.2;;
40012;SDS011;37387;42.672;23.334;2023-04-07T02:16:48;5.4;;;3.0;;
40012;SDS011;37387;42.672;23.334;2023-04-07T02:17:48;4.5;;;2.5;;
40012;SDS011;37387;42.672;23.334;2023-04-07T02:18:47;4.5;;;2.8;;
40012;SDS011;37387;42.672;23.334;2023-04-07T02:20:47;8.4;;;3.7;;
40012;SDS011;37387;42.672;23.334;2023-04-07T02:21:47;8.4;;;4.0;;
40012;SDS011;37387;42.672;23.334;2023-04-07T02:22:47;6.9;;;3.5;;
40012;SDS011;37387;42.672;23.334;2023-04-07T02:23:47;5.2;;;4.3;;
40012;SDS011;37387;42.672;23.334;2023-04-07T02:24:47;8.1;;;3.3;;
40012;SDS011;37387;42.672;23.334;2023-04-07T02:25:47;7.9;;;3.6;;
40012;SDS011;37387;42.672;23.334;2023-04-07T02:26:47;6.2;;;2.5;;
40012;SDS011;37387;42.672;23.334;2023-04-07T02:27:47;6.3;;;2.8;;
40012;SDS011;37387;42.672;23.334;2023-04-07T02:28:46;6.3;;;3.1;;
40012;SDS011;37387;42.672;23.334;2023-04-07T02:29:46;3.3;;;2.3;;
40012;SDS011;37387;42.672;23.334;2023-04-07T02:30:46;3.3;;;2.8;;
40012;SDS011;37387;42.672;23.334;2023-04-07T02:31:46;4.9;;;3.0;;
40012;SDS011;37387;42.672;23.334;2023-04-07T02:32:46;4.8;;;3.3;;
40012;SDS011;37387;42.672;23.334;2023-04-07T02:33:46;5.5;;;3.0;;
40012;SDS011;37387;42.672;23.334;2023-04-07T02:34:46;5.5;;;3.1;;
40012;SDS011;37387;42.672;23.334;2023-04-07T02:35:46;6.0;;;3.9;;
40012;SDS011;37387;42.672;23.334;2023-04-07T02:36:46;7.3;;;4.1;;
40012;SDS011;37387;42.672;23.334;2023-04-07T02:37:45;7.3;;;3.2;;
40012;SDS011;37387;42.672;23.334;2023-04-07T02:38:45;5.0;;;3.1;;
40012;SDS011;37387;42.672;23.334;2023-04-07T02:39:45;5.0;;;3.4;;
40012;SDS011;37387;42.672;23.334;2023-04-07T02:40:45;5.0;;;3.2;;
40012;SDS011;37387;42.672;23.334;2023-04-07T02:41:45;6.5;;;3.5;;
40012;SDS011;37387;42.672;23.334;2023-04-07T02:42:45;7.7;;;2.9;;
40012;SDS011;37387;42.672;23.334;2023-04-07T02:43:45;4.3;;;2.5;;
40012;SDS011;37387;42.672;23.334;2023-04-07T02:44:45;6.4;;;3.1;;
40012;SDS011;37387;42.672;23.334;2023-04-07T02:45:45;12.8;;;4.9;;
40012;SDS011;37387;42.672;23.334;2023-04-07T02:46:44;3.2;;;2.7;;
40012;SDS011;37387;42.672;23.334;2023-04-07T02:47:44;3.2;;;2.5;;
40012;SDS011;37387;42.672;23.334;2023-04-07T02:48:44;3.0;;;2.7;;
40012;SDS011;37387;42.672;23.334;2023-04-07T02:49:44;3.0;;;2.8;;
40012;SDS011;37387;42.672;23.334;2023-04-07T02:50:44;4.3;;;3.3;;
40012;SDS011;37387;42.672;23.334;2023-04-07T02:51:44;6.1;;;2.7;;
40012;SDS011;37387;42.672;23.334;2023-04-07T02:52:44;6.2;;;3.1;;
40012;SDS011;37387;42.672;23.334;2023-04-07T02:53:44;6.2;;;2.9;;
40012;SDS011;37387;42.672;23.334;2023-04-07T02:54:44;5.0;;;3.0;;
40012;SDS011;37387;42.672;23.334;2023-04-07T02:55:44;4.5;;;2.7;;
40012;SDS011;37387;42.672;23.334;2023-04-07T02:56:43;4.5;;;3.6;;
40012;SDS011;37387;42.672;23.334;2023-04-07T02:57:43;5.1;;;3.2;;
40012;SDS011;37387;42.672;23.334;2023-04-07T02:58:43;5.1;;;2.9;;
40012;SDS011;37387;42.672;23.334;2023-04-07T03:02:43;4.6;;;2.8;;
40012;SDS011;37387;42.672;23.334;2023-04-07T03:03:43;4.3;;;3.0;;
40012;SDS011;37387;42.672;23.334;2023-04-07T03:04:43;4.3;;;3.1;;
40012;SDS011;37387;42.672;23.334;2023-04-07T03:05:42;4.1;;;2.2;;
40012;SDS011;37387;42.672;23.334;2023-04-07T03:06:42;4.5;;;3.2;;
40012;SDS011;37387;42.672;23.334;2023-04-07T03:07:42;5.8;;;2.6;;
40012;SDS011;37387;42.672;23.334;2023-04-07T03:08:42;5.8;;;3.1;;
40012;SDS011;37387;42.672;23.334;2023-04-07T03:09:42;4.9;;;3.5;;
40012;SDS011;37387;42.672;23.334;2023-04-07T03:10:42;5.9;;;2.8;;
40012;SDS011;37387;42.672;23.334;2023-04-07T03:12:42;4.4;;;2.6;;
40012;SDS011;37387;42.672;23.334;2023-04-07T03:13:41;4.8;;;3.5;;
40012;SDS011;37387;42.672;23.334;2023-04-07T03:14:41;5.5;;;4.0;;
40012;SDS011;37387;42.672;23.334;2023-04-07T03:15:41;8.0;;;2.5;;
40012;SDS011;37387;42.672;23.334;2023-04-07T03:16:41;4.7;;;2.8;;
40012;SDS011;37387;42.672;23.334;2023-04-07T03:17:41;5.0;;;3.4;;
40012;SDS011;37387;42.672;23.334;2023-04-07T03:18:41;4.3;;;2.3;;
40012;SDS011;37387;42.672;23.334;2023-04-07T03:19:41;4.7;;;2.4;;
40012;SDS011;37387;42.672;23.334;2023-04-07T03:20:41;3.9;;;3.3;;
40012;SDS011;37387;42.672;23.334;2023-04-07T03:21:41;5.0;;;2.9;;
40012;SDS011;37387;42.672;23.334;2023-04-07T03:22:41;5.2;;;3.0;;
40012;SDS011;37387;42.672;23.334;2023-04-07T03:24:40;5.5;;;2.0;;
40012;SDS011;37387;42.672;23.334;2023-04-07T03:25:40;4.2;;;2.3;;
40012;SDS011;37387;42.672;23.334;2023-04-07T03:26:40;3.4;;;3.2;;
40012;SDS011;37387;42.672;23.334;2023-04-07T03:27:40;5.2;;;2.0;;
40012;SDS011;37387;42.672;23.334;2023-04-07T03:28:40;2.0;;;1.4;;
40012;SDS011;37387;42.672;23.334;2023-04-07T03:29:40;3.4;;;2.0;;
40012;SDS011;37387;42.672;23.334;2023-04-07T03:30:40;3.6;;;1.9;;
40012;SDS011;37387;42.672;23.334;2023-04-07T03:32:40;3.2;;;1.3;;
40012;SDS011;37387;42.672;23.334;2023-04-07T03:33:40;3.2;;;2.3;;
40012;SDS011;37387;42.672;23.334;2023-04-07T03:34:39;3.4;;;1.4;;
40012;SDS011;37387;42.672;23.334;2023-04-07T03:35:40;1.8;;;1.0;;
40012;SDS011;37387;42.672;23.334;2023-04-07T03:36:39;1.8;;;1.5;;
40012;SDS011;37387;42.672;23.334;2023-04-07T03:37:39;2.4;;;1.6;;
40012;SDS011;37387;42.672;23.334;2023-04-07T03:38:39;1.9;;;1.4;;
40012;SDS011;37387;42.672;23.334;2023-04-07T03:39:39;1.9;;;1.0;;
40012;SDS011;37387;42.672;23.334;2023-04-07T03:40:39;2.9;;;1.4;;
40012;SDS011;37387;42.672;23.334;2023-04-07T03:41:39;3.6;;;1.3;;
40012;SDS011;37387;42.672;23.334;2023-04-07T03:42:39;3.6;;;2.0;;
40012;SDS011;37387;42.672;23.334;2023-04-07T03:43:39;2.2;;;1.5;;
40012;SDS011;37387;42.672;23.334;2023-04-07T03:44:39;2.2;;;1.4;;
40012;SDS011;37387;42.672;23.334;2023-04-07T03:45:38;2.1;;;1.8;;
40012;SDS011;37387;42.672;23.334;2023-04-07T03:46:38;2.9;;;2.2;;
40012;SDS011;37387;42.672;23.334;2023-04-07T03:47:38;2.4;;;1.6;;
40012;SDS011;37387;42.672;23.334;2023-04-07T03:48:38;2.4;;;1.4;;
40012;SDS011;37387;42.672;23.334;2023-04-07T03:50:38;2.1;;;1.7;;
40012;SDS011;37387;42.672;23.334;2023-04-07T03:51:38;2.8;;;1.6;;
40012;SDS011;37387;42.672;23.334;2023-04-07T03:52:38;2.5;;;1.8;;
40012;SDS011;37387;42.672;23.334;2023-04-07T03:53:38;1.9;;;1.3;;
40012;SDS011;37387;42.672;23.334;2023-04-07T03:55:37;2.3;;;1.2;;
40012;SDS011;37387;42.672;23.334;2023-04-07T03:56:37;5.2;;;1.9;;
40012;SDS011;37387;42.672;23.334;2023-04-07T03:57:37;3.2;;;1.7;;
40012;SDS011;37387;42.672;23.334;2023-04-07T03:58:37;2.1;;;1.5;;
40012;SDS011;37387;42.672;23.334;2023-04-07T03:59:37;2.1;;;1.8;;
40012;SDS011;37387;42.672;23.334;2023-04-07T04:00:37;3.7;;;1.6;;
40012;SDS011;37387;42.672;23.334;2023-04-07T04:01:37;3.7;;;1.5;;
40012;SDS011;37387;42.672;23.334;2023-04-07T04:02:37;4.2;;;1.6;;
40012;SDS011;37387;42.672;23.334;2023-04-07T04:03:37;4.2;;;1.2;;
40012;SDS011;37387;42.672;23.334;2023-04-07T04:04:37;2.3;;;1.7;;
40012;SDS011;37387;42.672;23.334;2023-04-07T04:05:36;2.4;;;1.6;;
40012;SDS011;37387;42.672;23.334;2023-04-07T04:06:36;2.2;;;1.0;;
40012;SDS011;37387;42.672;23.334;2023-04-07T04:07:36;2.2;;;1.2;;
40012;SDS011;37387;42.672;23.334;2023-04-07T04:08:36;1.6;;;1.3;;
40012;SDS011;37387;42.672;23.334;2023-04-07T04:09:36;2.6;;;1.7;;
40012;SDS011;37387;42.672;23.334;2023-04-07T04:10:36;2.7;;;1.2;;
40012;SDS011;37387;42.672;23.334;2023-04-07T04:11:36;2.4;;;1.1;;
40012;SDS011;37387;42.672;23.334;2023-04-07T04:13:36;1.1;;;0.9;;
40012;SDS011;37387;42.672;23.334;2023-04-07T04:14:35;2.0;;;1.2;;
40012;SDS011;37387;42.672;23.334;2023-04-07T04:15:35;4.0;;;1.5;;
40012;SDS011;37387;42.672;23.334;2023-04-07T04:16:35;4.0;;;1.6;;
40012;SDS011;37387;42.672;23.334;2023-04-07T04:17:35;3.1;;;1.5;;
40012;SDS011;37387;42.672;23.334;2023-04-07T04:18:35;2.4;;;1.1;;
40012;SDS011;37387;42.672;23.334;2023-04-07T04:19:35;3.2;;;0.9;;
40012;SDS011;37387;42.672;23.334;2023-04-07T04:20:35;1.0;;;1.5;;
40012;SDS011;37387;42.672;23.334;2023-04-07T04:21:35;3.0;;;1.7;;
40012;SDS011;37387;42.672;23.334;2023-04-07T04:23:35;2.3;;;2.1;;
40012;SDS011;37387;42.672;23.334;2023-04-07T04:24:34;3.9;;;2.5;;
40012;SDS011;37387;42.672;23.334;2023-04-07T04:25:34;5.7;;;3.0;;
40012;SDS011;37387;42.672;23.334;2023-04-07T04:26:34;5.7;;;2.3;;
40012;SDS011;37387;42.672;23.334;2023-04-07T04:27:34;4.1;;;2.1;;
40012;SDS011;37387;42.672;23.334;2023-04-07T04:28:34;2.9;;;1.9;;
40012;SDS011;37387;42.672;23.334;2023-04-07T04:29:34;4.6;;;3.1;;
40012;SDS011;37387;42.672;23.334;2023-04-07T04:30:34;4.1;;;2.9;;
40012;SDS011;37387;42.672;23.334;2023-04-07T04:31:34;5.0;;;2.4;;
40012;SDS011;37387;42.672;23.334;2023-04-07T04:32:34;7.1;;;2.7;;
40012;SDS011;37387;42.672;23.334;2023-04-07T04:33:34;7.1;;;3.1;;
40012;SDS011;37387;42.672;23.334;2023-04-07T04:34:33;7.1;;;3.6;;
40012;SDS011;37387;42.672;23.334;2023-04-07T04:35:33;7.1;;;2.9;;
40012;SDS011;37387;42.672;23.334;2023-04-07T04:36:33;5.4;;;3.2;;
40012;SDS011;37387;42.672;23.334;2023-04-07T04:37:33;4.6;;;3.1;;
40012;SDS011;37387;42.672;23.334;2023-04-07T04:38:33;4.5;;;3.0;;
40012;SDS011;37387;42.672;23.334;2023-04-07T04:39:33;5.3;;;3.6;;
40012;SDS011;37387;42.672;23.334;2023-04-07T04:41:33;5.4;;;3.4;;
40012;SDS011;37387;42.672;23.334;2023-04-07T04:42:33;6.7;;;3.8;;
40012;SDS011;37387;42.672;23.334;2023-04-07T04:44:32;8.1;;;4.4;;
40012;SDS011;37387;42.672;23.334;2023-04-07T04:45:32;8.1;;;3.4;;
40012;SDS011;37387;42.672;23.334;2023-04-07T04:46:32;5.0;;;3.3;;
40012;SDS011;37387;42.672;23.334;2023-04-07T04:47:32;5.0;;;3.4;;
40012;SDS011;37387;42.672;23.334;2023-04-07T04:48:32;5.8;;;4.0;;
40012;SDS011;37387;42.672;23.334;2023-04-07T04:49:32;6.6;;;3.4;;
40012;SDS011;37387;42.672;23.334;2023-04-07T04:50:32;7.5;;;3.7;;
40012;SDS011;37387;42.672;23.334;2023-04-07T04:51:32;6.4;;;3.5;;
40012;SDS011;37387;42.672;23.334;2023-04-07T04:52:31;6.4;;;3.9;;
40012;SDS011;37387;42.672;23.334;2023-04-07T04:53:31;5.2;;;3.1;;
40012;SDS011;37387;42.672;23.334;2023-04-07T04:54:31;4.9;;;3.3;;
40012;SDS011;37387;42.672;23.334;2023-04-07T04:55:31;6.1;;;3.7;;
40012;SDS011;37387;42.672;23.334;2023-04-07T04:56:31;6.1;;;3.4;;
40012;SDS011;37387;42.672;23.334;2023-04-07T04:57:31;4.6;;;3.3;;
40012;SDS011;37387;42.672;23.334;2023-04-07T04:58:31;4.4;;;3.1;;
40012;SDS011;37387;42.672;23.334;2023-04-07T04:59:32;6.9;;;2.9;;
40012;SDS011;37387;42.672;23.334;2023-04-07T05:02:30;3.6;;;3.3;;
40012;SDS011;37387;42.672;23.334;2023-04-07T05:03:30;6.1;;;2.9;;
40012;SDS011;37387;42.672;23.334;2023-04-07T05:05:30;5.7;;;3.2;;
40012;SDS011;37387;42.672;23.334;2023-04-07T05:06:30;7.2;;;3.4;;
40012;SDS011;37387;42.672;23.334;2023-04-07T05:07:30;4.5;;;2.8;;
40012;SDS011;37387;42.672;23.334;2023-04-07T05:08:30;4.5;;;2.7;;
40012;SDS011;37387;42.672;23.334;2023-04-07T05:09:30;4.9;;;2.6;;
40012;SDS011;37387;42.672;23.334;2023-04-07T05:10:29;5.0;;;3.1;;
40012;SDS011;37387;42.672;23.334;2023-04-07T05:11:29;4.7;;;2.9;;
40012;SDS011;37387;42.672;23.334;2023-04-07T05:12:29;4.7;;;3.9;;
40012;SDS011;37387;42.672;23.334;2023-04-07T05:13:29;5.0;;;2.7;;
40012;SDS011;37387;42.672;23.334;2023-04-07T05:14:29;5.0;;;3.2;;
40012;SDS011;37387;42.672;23.334;2023-04-07T05:15:29;5.4;;;2.9;;
40012;SDS011;37387;42.672;23.334;2023-04-07T05:16:29;4.7;;;2.4;;
40012;SDS011;37387;42.672;23.334;2023-04-07T05:17:29;2.9;;;3.4;;
40012;SDS011;37387;42.672;23.334;2023-04-07T05:18:29;5.0;;;3.1;;
40012;SDS011;37387;42.672;23.334;2023-04-07T05:19:29;5.1;;;2.9;;
40012;SDS011;37387;42.672;23.334;2023-04-07T05:20:29;5.1;;;2.8;;
40012;SDS011;37387;42.672;23.334;2023-04-07T05:21:28;5.3;;;2.7;;
40012;SDS011;37387;42.672;23.334;2023-04-07T05:22:28;4.9;;;3.2;;
40012;SDS011;37387;42.672;23.334;2023-04-07T05:23:28;5.3;;;2.9;;
40012;SDS011;37387;42.672;23.334;2023-04-07T05:24:28;5.5;;;3.3;;
40012;SDS011;37387;42.672;23.334;2023-04-07T05:25:28;5.5;;;3.4;;
40012;SDS011;37387;42.672;23.334;2023-04-07T05:26:28;4.9;;;3.1;;
40012;SDS011;37387;42.672;23.334;2023-04-07T05:27:28;8.2;;;3.3;;
40012;SDS011;37387;42.672;23.334;2023-04-07T05:28:28;5.1;;;2.7;;
40012;SDS011;37387;42.672;23.334;2023-04-07T05:29:28;4.2;;;3.7;;
40012;SDS011;37387;42.672;23.334;2023-04-07T05:30:28;8.2;;;2.3;;
40012;SDS011;37387;42.672;23.334;2023-04-07T05:31:28;4.8;;;4.1;;
40012;SDS011;37387;42.672;23.334;2023-04-07T05:32:27;7.7;;;2.6;;
40012;SDS011;37387;42.672;23.334;2023-04-07T05:33:27;5.2;;;2.9;;
40012;SDS011;37387;42.672;23.334;2023-04-07T05:34:27;5.2;;;3.2;;
40012;SDS011;37387;42.672;23.334;2023-04-07T05:35:27;6.5;;;3.7;;
40012;SDS011;37387;42.672;23.334;2023-04-07T05:36:27;7.2;;;3.2;;
40012;SDS011;37387;42.672;23.334;2023-04-07T05:37:27;7.2;;;3.4;;
40012;SDS011;37387;42.672;23.334;2023-04-07T05:39:27;6.2;;;4.0;;
40012;SDS011;37387;42.672;23.334;2023-04-07T05:40:27;5.8;;;3.7;;
40012;SDS011;37387;42.672;23.334;2023-04-07T05:41:27;6.6;;;3.1;;
40012;SDS011;37387;42.672;23.334;2023-04-07T05:43:27;5.6;;;2.4;;
40012;SDS011;37387;42.672;23.334;2023-04-07T05:44:27;5.6;;;2.9;;
40012;SDS011;37387;42.672;23.334;2023-04-07T05:45:27;4.8;;;2.7;;
40012;SDS011;37387;42.672;23.334;2023-04-07T05:46:27;5.7;;;3.3;;
40012;SDS011;37387;42.672;23.334;2023-04-07T05:47:26;5.5;;;3.0;;
40012;SDS011;37387;42.672;23.334;2023-04-07T05:48:26;5.9;;;2.4;;
40012;SDS011;37387;42.672;23.334;2023-04-07T05:51:26;4.6;;;3.1;;
40012;SDS011;37387;42.672;23.334;2023-04-07T05:52:26;5.0;;;3.6;;
40012;SDS011;37387;42.672;23.334;2023-04-07T05:53:26;5.0;;;13.8;;
40012;SDS011;37387;42.672;23.334;2023-04-07T05:54:26;5.7;;;3.6;;
40012;SDS011;37387;42.672;23.334;2023-04-07T05:55:26;5.7;;;3.2;;
40012;SDS011;37387;42.672;23.334;2023-04-07T05:56:26;6.5;;;3.7;;
40012;SDS011;37387;42.672;23.334;2023-04-07T05:57:26;6.9;;;4.0;;
40012;SDS011;37387;42.672;23.334;2023-04-07T05:58:26;3.7;;;2.5;;
40012;SDS011;37387;42.672;23.334;2023-04-07T05:59:26;3.7;;;6.6;;
40012;SDS011;37387;42.672;23.334;2023-04-07T06:00:26;16.0;;;4.5;;
40012;SDS011;37387;42.672;23.334;2023-04-07T06:01:26;9.7;;;2.9;;
40012;SDS011;37387;42.672;23.334;2023-04-07T06:02:25;5.2;;;4.2;;
40012;SDS011;37387;42.672;23.334;2023-04-07T06:03:25;9.2;;;4.7;;
40012;SDS011;37387;42.672;23.334;2023-04-07T06:04:25;9.5;;;4.6;;
40012;SDS011;37387;42.672;23.334;2023-04-07T06:05:25;9.5;;;4.0;;
40012;SDS011;37387;42.672;23.334;2023-04-07T06:06:25;8.8;;;3.7;;
40012;SDS011;37387;42.672;23.334;2023-04-07T06:07:25;5.2;;;3.3;;
40012;SDS011;37387;42.672;23.334;2023-04-07T06:08:25;5.1;;;2.6;;
40012;SDS011;37387;42.672;23.334;2023-04-07T06:09:25;5.1;;;3.1;;
40012;SDS011;37387;42.672;23.334;2023-04-07T06:10:25;6.6;;;3.3;;
40012;SDS011;37387;42.672;23.334;2023-04-07T06:11:25;6.6;;;2.9;;
40012;SDS011;37387;42.672;23.334;2023-04-07T06:12:25;4.5;;;3.4;;
40012;SDS011;37387;42.672;23.334;2023-04-07T06:13:25;5.4;;;2.3;;
40012;SDS011;37387;42.672;23.334;2023-04-07T06:14:25;6.0;;;3.1;;
40012;SDS011;37387;42.672;23.334;2023-04-07T06:15:24;6.0;;;3.4;;
40012;SDS011;37387;42.672;23.334;2023-04-07T06:16:24;6.0;;;3.6;;
40012;SDS011;37387;42.672;23.334;2023-04-07T06:18:24;7.2;;;2.9;;
40012;SDS011;37387;42.672;23.334;2023-04-07T06:19:24;4.1;;;2.8;;
40012;SDS011;37387;42.672;23.334;2023-04-07T06:20:24;3.7;;;2.7;;
40012;SDS011;37387;42.672;23.334;2023-04-07T06:21:24;3.7;;;3.0;;
40012;SDS011;37387;42.672;23.334;2023-04-07T06:22:24;4.5;;;3.3;;
40012;SDS011;37387;42.672;23.334;2023-04-07T06:23:24;4.9;;;3.0;;
40012;SDS011;37387;42.672;23.334;2023-04-07T06:24:24;5.3;;;3.4;;
40012;SDS011;37387;42.672;23.334;2023-04-07T06:25:24;5.3;;;2.8;;
40012;SDS011;37387;42.672;23.334;2023-04-07T06:26:24;4.4;;;3.6;;
40012;SDS011;37387;42.672;23.334;2023-04-07T06:27:24;4.9;;;2.9;;
40012;SDS011;37387;42.672;23.334;2023-04-07T06:28:24;4.9;;;2.6;;
40012;SDS011;37387;42.672;23.334;2023-04-07T06:29:24;5.8;;;3.3;;
40012;SDS011;37387;42.672;23.334;2023-04-07T06:30:24;5.8;;;3.1;;
40012;SDS011;37387;42.672;23.334;2023-04-07T06:31:24;5.3;;;2.7;;
40012;SDS011;37387;42.672;23.334;2023-04-07T06:32:24;6.0;;;3.7;;
40012;SDS011;37387;42.672;23.334;2023-04-07T06:33:24;5.4;;;3.1;;
40012;SDS011;37387;42.672;23.334;2023-04-07T06:34:24;7.7;;;4.3;;
40012;SDS011;37387;42.672;23.334;2023-04-07T06:35:24;7.7;;;5.7;;
40012;SDS011;37387;42.672;23.334;2023-04-07T06:36:24;7.0;;;3.5;;
40012;SDS011;37387;42.672;23.334;2023-04-07T06:37:24;7.0;;;2.6;;
40012;SDS011;37387;42.672;23.334;2023-04-07T06:38:24;5.4;;;4.2;;
40012;SDS011;37387;42.672;23.334;2023-04-07T06:39:25;7.3;;;3.3;;
40012;SDS011;37387;42.672;23.334;2023-04-07T06:40:24;5.8;;;2.8;;
40012;SDS011;37387;42.672;23.334;2023-04-07T06:41:24;6.7;;;2.7;;